sensor_id;sensor_type;location;lat;lon;timestamp;P1;durP1;ratioP1;P2;durP2;ratioP2
9328;SDS011;4703;48.748;19.142;2023-03-01T00:01:18;18.70;;;14.10;;
9328;SDS011;4703;48.748;19.142;2023-03-01T00:03:51;20.07;;;15.60;;
9328;SDS011;4703;48.748;19.142;2023-03-01T00:06:19;21.20;;;16.03;;
9328;SDS011;4703;48.748;19.142;2023-03-01T00:08:47;22.37;;;15.30;;
9328;SDS011;4703;48.748;19.142;2023-03-01T00:13:46;20.23;;;14.60;;
9328;SDS011;4703;48.748;19.142;2023-03-01T00:16:15;21.20;;;14.77;;
9328;SDS011;4703;48.748;19.142;2023-03-01T00:18:45;16.07;;;13.40;;
9328;SDS011;4703;48.748;19.142;2023-03-01T00:21:13;18.90;;;13.80;;
9328;SDS011;4703;48.748;19.142;2023-03-01T00:23:40;15.80;;;13.30;;
9328;SDS011;4703;48.748;19.142;2023-03-01T00:26:08;14.53;;;12.90;;
9328;SDS011;4703;48.748;19.142;2023-03-01T00:28:39;15.07;;;12.20;;
9328;SDS011;4703;48.748;19.142;2023-03-01T00:31:07;15.30;;;12.63;;
9328;SDS011;4703;48.748;19.142;2023-03-01T00:33:38;20.57;;;13.27;;
9328;SDS011;4703;48.748;19.142;2023-03-01T00:36:06;12.90;;;11.07;;
9328;SDS011;4703;48.748;19.142;2023-03-01T00:38:34;15.70;;;13.33;;
9328;SDS011;4703;48.748;19.142;2023-03-01T00:41:13;14.67;;;12.27;;
9328;SDS011;4703;48.748;19.142;2023-03-01T00:43:42;15.83;;;12.37;;
9328;SDS011;4703;48.748;19.142;2023-03-01T00:46:14;17.90;;;14.00;;
9328;SDS011;4703;48.748;19.142;2023-03-01T00:48:43;14.30;;;11.83;;
9328;SDS011;4703;48.748;19.142;2023-03-01T00:51:13;19.23;;;12.60;;
9328;SDS011;4703;48.748;19.142;2023-03-01T00:53:52;16.80;;;13.77;;
9328;SDS011;4703;48.748;19.142;2023-03-01T00:56:23;15.60;;;12.67;;
9328;SDS011;4703;48.748;19.142;2023-03-01T00:58:51;16.07;;;13.40;;
9328;SDS011;4703;48.748;19.142;2023-03-01T01:01:19;15.37;;;12.77;;
9328;SDS011;4703;48.748;19.142;2023-03-01T01:03:51;19.73;;;14.00;;
9328;SDS011;4703;48.748;19.142;2023-03-01T01:06:44;17.20;;;13.73;;
9328;SDS011;4703;48.748;19.142;2023-03-01T01:09:12;19.30;;;15.33;;
9328;SDS011;4703;48.748;19.142;2023-03-01T01:11:45;22.13;;;16.57;;
9328;SDS011;4703;48.748;19.142;2023-03-01T01:14:16;20.03;;;15.57;;
9328;SDS011;4703;48.748;19.142;2023-03-01T01:16:44;21.23;;;16.50;;
9328;SDS011;4703;48.748;19.142;2023-03-01T01:19:11;22.40;;;15.90;;
9328;SDS011;4703;48.748;19.142;2023-03-01T01:21:39;19.57;;;16.77;;
9328;SDS011;4703;48.748;19.142;2023-03-01T01:24:09;19.27;;;15.93;;
9328;SDS011;4703;48.748;19.142;2023-03-01T01:26:36;19.40;;;15.20;;
9328;SDS011;4703;48.748;19.142;2023-03-01T01:29:04;21.23;;;16.37;;
9328;SDS011;4703;48.748;19.142;2023-03-01T01:31:31;19.40;;;15.83;;
9328;SDS011;4703;48.748;19.142;2023-03-01T01:34:01;20.23;;;15.50;;
9328;SDS011;4703;48.748;19.142;2023-03-01T01:36:31;17.87;;;13.80;;
9328;SDS011;4703;48.748;19.142;2023-03-01T01:38:59;22.97;;;16.03;;
9328;SDS011;4703;48.748;19.142;2023-03-01T01:41:27;17.50;;;14.03;;
9328;SDS011;4703;48.748;19.142;2023-03-01T01:49:41;17.63;;;13.50;;
9328;SDS011;4703;48.748;19.142;2023-03-01T01:52:18;15.37;;;13.17;;
9328;SDS011;4703;48.748;19.142;2023-03-01T01:55:03;17.43;;;13.60;;
9328;SDS011;4703;48.748;19.142;2023-03-01T01:57:39;14.63;;;12.00;;
9328;SDS011;4703;48.748;19.142;2023-03-01T02:00:15;17.00;;;13.50;;
9328;SDS011;4703;48.748;19.142;2023-03-01T02:02:47;16.00;;;13.40;;
9328;SDS011;4703;48.748;19.142;2023-03-01T02:05:55;16.73;;;14.77;;
9328;SDS011;4703;48.748;19.142;2023-03-01T02:08:21;19.67;;;13.90;;
9328;SDS011;4703;48.748;19.142;2023-03-01T02:10:53;18.60;;;13.37;;
9328;SDS011;4703;48.748;19.142;2023-03-01T02:13:22;17.37;;;12.77;;
9328;SDS011;4703;48.748;19.142;2023-03-01T02:15:50;17.13;;;13.00;;
9328;SDS011;4703;48.748;19.142;2023-03-01T02:18:17;20.47;;;13.87;;
9328;SDS011;4703;48.748;19.142;2023-03-01T02:23:31;18.03;;;14.60;;
9328;SDS011;4703;48.748;19.142;2023-03-01T02:26:18;16.40;;;13.97;;
9328;SDS011;4703;48.748;19.142;2023-03-01T02:28:52;16.30;;;14.60;;
9328;SDS011;4703;48.748;19.142;2023-03-01T02:31:19;17.90;;;13.80;;
9328;SDS011;4703;48.748;19.142;2023-03-01T02:34:06;16.13;;;14.27;;
9328;SDS011;4703;48.748;19.142;2023-03-01T02:36:53;17.00;;;12.77;;
9328;SDS011;4703;48.748;19.142;2023-03-01T02:39:37;16.97;;;14.00;;
9328;SDS011;4703;48.748;19.142;2023-03-01T02:42:10;18.53;;;14.33;;
9328;SDS011;4703;48.748;19.142;2023-03-01T02:44:41;20.67;;;14.73;;
9328;SDS011;4703;48.748;19.142;2023-03-01T02:47:08;18.67;;;14.90;;
9328;SDS011;4703;48.748;19.142;2023-03-01T02:49:35;16.97;;;13.67;;
9328;SDS011;4703;48.748;19.142;2023-03-01T02:52:23;16.60;;;13.43;;
9328;SDS011;4703;48.748;19.142;2023-03-01T02:57:32;15.50;;;12.30;;
9328;SDS011;4703;48.748;19.142;2023-03-01T03:00:06;16.87;;;12.57;;
9328;SDS011;4703;48.748;19.142;2023-03-01T03:02:50;14.77;;;13.17;;
9328;SDS011;4703;48.748;19.142;2023-03-01T03:05:20;17.67;;;14.10;;
9328;SDS011;4703;48.748;19.142;2023-03-01T03:07:54;15.10;;;13.33;;
9328;SDS011;4703;48.748;19.142;2023-03-01T03:10:29;16.70;;;13.40;;
9328;SDS011;4703;48.748;19.142;2023-03-01T03:13:10;16.80;;;12.43;;
9328;SDS011;4703;48.748;19.142;2023-03-01T03:15:40;17.90;;;13.53;;
9328;SDS011;4703;48.748;19.142;2023-03-01T03:18:10;12.97;;;11.37;;
9328;SDS011;4703;48.748;19.142;2023-03-01T03:20:42;16.40;;;13.40;;
9328;SDS011;4703;48.748;19.142;2023-03-01T03:23:10;13.73;;;10.83;;
9328;SDS011;4703;48.748;19.142;2023-03-01T03:25:37;14.10;;;10.90;;
9328;SDS011;4703;48.748;19.142;2023-03-01T03:28:05;14.50;;;11.90;;
9328;SDS011;4703;48.748;19.142;2023-03-01T03:30:37;17.50;;;11.27;;
9328;SDS011;4703;48.748;19.142;2023-03-01T03:33:07;17.80;;;12.50;;
9328;SDS011;4703;48.748;19.142;2023-03-01T03:35:48;16.00;;;12.90;;
9328;SDS011;4703;48.748;19.142;2023-03-01T03:38:17;14.77;;;12.50;;
9328;SDS011;4703;48.748;19.142;2023-03-01T03:40:49;17.70;;;10.97;;
9328;SDS011;4703;48.748;19.142;2023-03-01T03:43:30;17.33;;;12.93;;
9328;SDS011;4703;48.748;19.142;2023-03-01T03:45:59;12.27;;;10.30;;
9328;SDS011;4703;48.748;19.142;2023-03-01T03:48:26;14.97;;;11.10;;
9328;SDS011;4703;48.748;19.142;2023-03-01T03:50:54;14.70;;;10.67;;
9328;SDS011;4703;48.748;19.142;2023-03-01T03:53:23;17.60;;;13.20;;
9328;SDS011;4703;48.748;19.142;2023-03-01T03:55:52;15.97;;;11.87;;
9328;SDS011;4703;48.748;19.142;2023-03-01T03:58:20;13.83;;;12.20;;
9328;SDS011;4703;48.748;19.142;2023-03-01T04:00:50;15.90;;;13.00;;
9328;SDS011;4703;48.748;19.142;2023-03-01T04:03:22;13.67;;;11.63;;
9328;SDS011;4703;48.748;19.142;2023-03-01T04:05:51;14.10;;;12.60;;
9328;SDS011;4703;48.748;19.142;2023-03-01T04:08:19;13.77;;;12.33;;
9328;SDS011;4703;48.748;19.142;2023-03-01T04:10:49;13.73;;;11.37;;
9328;SDS011;4703;48.748;19.142;2023-03-01T04:13:19;14.40;;;11.70;;
9328;SDS011;4703;48.748;19.142;2023-03-01T04:15:49;13.97;;;11.43;;
9328;SDS011;4703;48.748;19.142;2023-03-01T04:18:20;15.93;;;12.70;;
9328;SDS011;4703;48.748;19.142;2023-03-01T04:20:50;14.60;;;12.90;;
9328;SDS011;4703;48.748;19.142;2023-03-01T04:23:19;17.83;;;13.30;;
9328;SDS011;4703;48.748;19.142;2023-03-01T04:25:52;15.13;;;12.30;;
9328;SDS011;4703;48.748;19.142;2023-03-01T04:28:24;16.53;;;11.77;;
9328;SDS011;4703;48.748;19.142;2023-03-01T04:30:52;14.63;;;12.20;;
9328;SDS011;4703;48.748;19.142;2023-03-01T04:33:20;16.83;;;13.33;;
9328;SDS011;4703;48.748;19.142;2023-03-01T04:35:48;15.27;;;11.67;;
9328;SDS011;4703;48.748;19.142;2023-03-01T04:38:19;16.43;;;12.23;;
9328;SDS011;4703;48.748;19.142;2023-03-01T04:40:47;15.90;;;11.20;;
9328;SDS011;4703;48.748;19.142;2023-03-01T04:43:14;19.33;;;13.20;;
9328;SDS011;4703;48.748;19.142;2023-03-01T04:45:41;14.87;;;12.70;;
9328;SDS011;4703;48.748;19.142;2023-03-01T04:48:09;13.30;;;11.10;;
9328;SDS011;4703;48.748;19.142;2023-03-01T04:50:36;15.50;;;11.30;;
9328;SDS011;4703;48.748;19.142;2023-03-01T04:53:03;14.60;;;11.87;;
9328;SDS011;4703;48.748;19.142;2023-03-01T04:55:30;15.67;;;12.00;;
9328;SDS011;4703;48.748;19.142;2023-03-01T04:57:57;13.93;;;10.60;;
9328;SDS011;4703;48.748;19.142;2023-03-01T05:00:25;16.00;;;11.70;;
9328;SDS011;4703;48.748;19.142;2023-03-01T05:02:53;14.67;;;11.60;;
9328;SDS011;4703;48.748;19.142;2023-03-01T05:05:27;15.40;;;11.47;;
9328;SDS011;4703;48.748;19.142;2023-03-01T05:08:01;12.77;;;11.43;;
9328;SDS011;4703;48.748;19.142;2023-03-01T05:10:32;15.20;;;11.10;;
9328;SDS011;4703;48.748;19.142;2023-03-01T05:13:02;19.00;;;13.30;;
9328;SDS011;4703;48.748;19.142;2023-03-01T05:15:30;14.67;;;11.53;;
9328;SDS011;4703;48.748;19.142;2023-03-01T05:17:59;17.83;;;12.27;;
9328;SDS011;4703;48.748;19.142;2023-03-01T05:20:27;13.73;;;11.90;;
9328;SDS011;4703;48.748;19.142;2023-03-01T05:22:57;17.43;;;11.83;;
9328;SDS011;4703;48.748;19.142;2023-03-01T05:25:26;19.23;;;11.67;;
9328;SDS011;4703;48.748;19.142;2023-03-01T05:27:53;16.53;;;12.77;;
9328;SDS011;4703;48.748;19.142;2023-03-01T05:30:20;17.67;;;13.07;;
9328;SDS011;4703;48.748;19.142;2023-03-01T05:32:49;16.17;;;12.10;;
9328;SDS011;4703;48.748;19.142;2023-03-01T05:35:22;15.13;;;12.30;;
9328;SDS011;4703;48.748;19.142;2023-03-01T05:37:50;15.07;;;12.33;;
9328;SDS011;4703;48.748;19.142;2023-03-01T05:40:18;15.63;;;13.50;;
9328;SDS011;4703;48.748;19.142;2023-03-01T05:42:48;18.90;;;13.83;;
9328;SDS011;4703;48.748;19.142;2023-03-01T05:45:22;18.47;;;13.87;;
9328;SDS011;4703;48.748;19.142;2023-03-01T05:47:51;19.70;;;14.27;;
9328;SDS011;4703;48.748;19.142;2023-03-01T05:50:19;20.27;;;13.77;;
9328;SDS011;4703;48.748;19.142;2023-03-01T05:52:54;17.90;;;14.10;;
9328;SDS011;4703;48.748;19.142;2023-03-01T05:55:25;17.40;;;15.13;;
9328;SDS011;4703;48.748;19.142;2023-03-01T05:57:54;17.93;;;13.87;;
9328;SDS011;4703;48.748;19.142;2023-03-01T06:00:21;15.57;;;13.70;;
9328;SDS011;4703;48.748;19.142;2023-03-01T06:02:49;17.03;;;13.00;;
9328;SDS011;4703;48.748;19.142;2023-03-01T06:05:18;14.50;;;11.40;;
9328;SDS011;4703;48.748;19.142;2023-03-01T06:07:45;14.00;;;11.30;;
9328;SDS011;4703;48.748;19.142;2023-03-01T06:10:12;14.13;;;12.40;;
9328;SDS011;4703;48.748;19.142;2023-03-01T06:12:41;18.60;;;13.10;;
9328;SDS011;4703;48.748;19.142;2023-03-01T06:15:10;15.07;;;11.77;;
9328;SDS011;4703;48.748;19.142;2023-03-01T06:17:40;14.23;;;11.00;;
9328;SDS011;4703;48.748;19.142;2023-03-01T06:20:12;15.63;;;11.67;;
9328;SDS011;4703;48.748;19.142;2023-03-01T06:22:42;15.80;;;12.73;;
9328;SDS011;4703;48.748;19.142;2023-03-01T06:25:11;16.80;;;12.83;;
9328;SDS011;4703;48.748;19.142;2023-03-01T06:27:41;15.03;;;12.90;;
9328;SDS011;4703;48.748;19.142;2023-03-01T06:30:09;16.97;;;12.70;;
9328;SDS011;4703;48.748;19.142;2023-03-01T06:32:38;18.10;;;13.83;;
9328;SDS011;4703;48.748;19.142;2023-03-01T06:35:09;21.10;;;14.90;;
9328;SDS011;4703;48.748;19.142;2023-03-01T06:37:44;18.90;;;15.07;;
9328;SDS011;4703;48.748;19.142;2023-03-01T06:40:13;20.23;;;15.30;;
9328;SDS011;4703;48.748;19.142;2023-03-01T06:42:42;21.40;;;15.80;;
9328;SDS011;4703;48.748;19.142;2023-03-01T06:45:18;27.57;;;15.17;;
9328;SDS011;4703;48.748;19.142;2023-03-01T06:47:46;20.23;;;14.50;;
9328;SDS011;4703;48.748;19.142;2023-03-01T06:50:14;18.60;;;14.13;;
9328;SDS011;4703;48.748;19.142;2023-03-01T06:52:42;19.53;;;14.87;;
9328;SDS011;4703;48.748;19.142;2023-03-01T06:55:11;20.77;;;16.33;;
9328;SDS011;4703;48.748;19.142;2023-03-01T06:57:39;19.33;;;15.50;;
9328;SDS011;4703;48.748;19.142;2023-03-01T07:00:06;20.37;;;15.30;;
9328;SDS011;4703;48.748;19.142;2023-03-01T07:02:34;20.60;;;15.63;;
9328;SDS011;4703;48.748;19.142;2023-03-01T07:05:01;21.20;;;16.83;;
9328;SDS011;4703;48.748;19.142;2023-03-01T07:07:28;32.30;;;22.50;;
9328;SDS011;4703;48.748;19.142;2023-03-01T07:09:55;19.23;;;14.57;;
9328;SDS011;4703;48.748;19.142;2023-03-01T07:12:22;19.87;;;14.27;;
9328;SDS011;4703;48.748;19.142;2023-03-01T07:14:49;22.90;;;15.83;;
9328;SDS011;4703;48.748;19.142;2023-03-01T07:17:16;17.00;;;14.70;;
9328;SDS011;4703;48.748;19.142;2023-03-01T07:19:43;17.10;;;14.37;;
9328;SDS011;4703;48.748;19.142;2023-03-01T07:22:11;17.90;;;13.83;;
9328;SDS011;4703;48.748;19.142;2023-03-01T07:24:38;16.40;;;13.00;;
9328;SDS011;4703;48.748;19.142;2023-03-01T07:27:05;17.03;;;13.17;;
9328;SDS011;4703;48.748;19.142;2023-03-01T07:29:32;18.37;;;13.90;;
9328;SDS011;4703;48.748;19.142;2023-03-01T07:31:59;14.67;;;12.30;;
9328;SDS011;4703;48.748;19.142;2023-03-01T07:34:26;13.87;;;12.43;;
9328;SDS011;4703;48.748;19.142;2023-03-01T07:36:53;20.37;;;14.80;;
9328;SDS011;4703;48.748;19.142;2023-03-01T07:39:21;26.40;;;17.90;;
9328;SDS011;4703;48.748;19.142;2023-03-01T07:41:49;18.87;;;14.93;;
9328;SDS011;4703;48.748;19.142;2023-03-01T07:44:17;15.60;;;12.63;;
9328;SDS011;4703;48.748;19.142;2023-03-01T07:46:44;18.10;;;13.13;;
9328;SDS011;4703;48.748;19.142;2023-03-01T07:49:11;15.10;;;12.03;;
9328;SDS011;4703;48.748;19.142;2023-03-01T07:51:37;17.33;;;13.27;;
9328;SDS011;4703;48.748;19.142;2023-03-01T07:54:04;17.10;;;13.53;;
9328;SDS011;4703;48.748;19.142;2023-03-01T07:56:31;15.17;;;12.50;;
9328;SDS011;4703;48.748;19.142;2023-03-01T07:58:59;16.50;;;13.07;;
9328;SDS011;4703;48.748;19.142;2023-03-01T08:01:26;15.40;;;12.80;;
9328;SDS011;4703;48.748;19.142;2023-03-01T08:03:53;15.70;;;11.77;;
9328;SDS011;4703;48.748;19.142;2023-03-01T08:06:20;15.23;;;12.47;;
9328;SDS011;4703;48.748;19.142;2023-03-01T08:08:47;14.70;;;12.47;;
9328;SDS011;4703;48.748;19.142;2023-03-01T08:11:14;19.53;;;16.20;;
9328;SDS011;4703;48.748;19.142;2023-03-01T08:13:42;26.70;;;20.50;;
9328;SDS011;4703;48.748;19.142;2023-03-01T08:16:11;13.47;;;11.93;;
9328;SDS011;4703;48.748;19.142;2023-03-01T08:18:41;12.87;;;10.73;;
9328;SDS011;4703;48.748;19.142;2023-03-01T08:21:10;12.33;;;10.57;;
9328;SDS011;4703;48.748;19.142;2023-03-01T08:23:40;14.40;;;12.23;;
9328;SDS011;4703;48.748;19.142;2023-03-01T08:28:38;30.13;;;20.53;;
9328;SDS011;4703;48.748;19.142;2023-03-01T08:31:40;16.00;;;11.90;;
9328;SDS011;4703;48.748;19.142;2023-03-01T08:34:03;12.40;;;10.43;;
9328;SDS011;4703;48.748;19.142;2023-03-01T08:36:37;13.63;;;11.53;;
9328;SDS011;4703;48.748;19.142;2023-03-01T08:39:07;10.93;;;9.83;;
9328;SDS011;4703;48.748;19.142;2023-03-01T08:41:36;13.47;;;10.77;;
9328;SDS011;4703;48.748;19.142;2023-03-01T08:44:04;11.90;;;10.40;;
9328;SDS011;4703;48.748;19.142;2023-03-01T08:46:33;12.33;;;11.03;;
9328;SDS011;4703;48.748;19.142;2023-03-01T08:49:04;17.93;;;12.13;;
9328;SDS011;4703;48.748;19.142;2023-03-01T08:51:43;16.93;;;11.97;;
9328;SDS011;4703;48.748;19.142;2023-03-01T08:54:12;16.63;;;14.10;;
9328;SDS011;4703;48.748;19.142;2023-03-01T08:56:45;13.03;;;11.73;;
9328;SDS011;4703;48.748;19.142;2023-03-01T08:59:14;13.87;;;11.23;;
9328;SDS011;4703;48.748;19.142;2023-03-01T09:01:43;12.70;;;10.93;;
9328;SDS011;4703;48.748;19.142;2023-03-01T09:04:10;18.13;;;12.17;;
9328;SDS011;4703;48.748;19.142;2023-03-01T09:06:38;16.80;;;12.23;;
9328;SDS011;4703;48.748;19.142;2023-03-01T09:09:06;11.20;;;10.03;;
9328;SDS011;4703;48.748;19.142;2023-03-01T09:11:41;12.10;;;10.50;;
9328;SDS011;4703;48.748;19.142;2023-03-01T09:14:10;11.23;;;10.13;;
9328;SDS011;4703;48.748;19.142;2023-03-01T09:16:38;11.83;;;10.43;;
9328;SDS011;4703;48.748;19.142;2023-03-01T09:19:06;13.37;;;11.53;;
9328;SDS011;4703;48.748;19.142;2023-03-01T09:21:33;14.17;;;11.60;;
9328;SDS011;4703;48.748;19.142;2023-03-01T09:24:07;19.70;;;15.50;;
9328;SDS011;4703;48.748;19.142;2023-03-01T09:26:40;12.50;;;10.60;;
9328;SDS011;4703;48.748;19.142;2023-03-01T09:29:07;17.17;;;9.73;;
9328;SDS011;4703;48.748;19.142;2023-03-01T09:31:36;14.63;;;10.30;;
9328;SDS011;4703;48.748;19.142;2023-03-01T09:34:03;10.80;;;9.73;;
9328;SDS011;4703;48.748;19.142;2023-03-01T09:36:30;11.20;;;9.97;;
9328;SDS011;4703;48.748;19.142;2023-03-01T09:38:58;16.93;;;15.00;;
9328;SDS011;4703;48.748;19.142;2023-03-01T09:41:33;15.17;;;13.57;;
9328;SDS011;4703;48.748;19.142;2023-03-01T09:47:00;12.67;;;10.13;;
9328;SDS011;4703;48.748;19.142;2023-03-01T09:49:33;13.10;;;9.33;;
9328;SDS011;4703;48.748;19.142;2023-03-01T09:54:55;11.00;;;7.70;;
9328;SDS011;4703;48.748;19.142;2023-03-01T09:57:27;8.20;;;7.40;;
9328;SDS011;4703;48.748;19.142;2023-03-01T10:00:30;8.20;;;7.20;;
9328;SDS011;4703;48.748;19.142;2023-03-01T10:03:15;7.53;;;6.80;;
9328;SDS011;4703;48.748;19.142;2023-03-01T10:08:30;7.40;;;6.67;;
9328;SDS011;4703;48.748;19.142;2023-03-01T10:11:05;9.17;;;8.27;;
9328;SDS011;4703;48.748;19.142;2023-03-01T10:13:55;4.73;;;4.23;;
9328;SDS011;4703;48.748;19.142;2023-03-01T10:16:52;4.43;;;4.00;;
9328;SDS011;4703;48.748;19.142;2023-03-01T10:22:16;5.07;;;4.57;;
9328;SDS011;4703;48.748;19.142;2023-03-01T10:24:57;3.50;;;3.20;;
9328;SDS011;4703;48.748;19.142;2023-03-01T10:30:21;4.87;;;4.40;;
9328;SDS011;4703;48.748;19.142;2023-03-01T10:33:25;6.80;;;4.63;;
9328;SDS011;4703;48.748;19.142;2023-03-01T10:35:56;5.10;;;4.67;;
9328;SDS011;4703;48.748;19.142;2023-03-01T10:38:23;5.43;;;4.97;;
9328;SDS011;4703;48.748;19.142;2023-03-01T10:46:36;5.63;;;5.13;;
9328;SDS011;4703;48.748;19.142;2023-03-01T10:51:52;5.93;;;5.30;;
9328;SDS011;4703;48.748;19.142;2023-03-01T10:54:30;4.73;;;4.33;;
9328;SDS011;4703;48.748;19.142;2023-03-01T10:56:59;5.17;;;4.67;;
9328;SDS011;4703;48.748;19.142;2023-03-01T10:59:33;4.90;;;4.40;;
9328;SDS011;4703;48.748;19.142;2023-03-01T11:02:17;4.63;;;3.70;;
9328;SDS011;4703;48.748;19.142;2023-03-01T11:05:26;4.87;;;4.47;;
9328;SDS011;4703;48.748;19.142;2023-03-01T11:07:57;5.80;;;4.07;;
9328;SDS011;4703;48.748;19.142;2023-03-01T11:10:26;5.93;;;3.20;;
9328;SDS011;4703;48.748;19.142;2023-03-01T11:13:05;5.00;;;4.60;;
9328;SDS011;4703;48.748;19.142;2023-03-01T11:15:43;4.33;;;4.03;;
9328;SDS011;4703;48.748;19.142;2023-03-01T11:18:33;4.27;;;3.87;;
9328;SDS011;4703;48.748;19.142;2023-03-01T11:21:13;4.00;;;3.70;;
9328;SDS011;4703;48.748;19.142;2023-03-01T11:23:42;4.70;;;3.67;;
9328;SDS011;4703;48.748;19.142;2023-03-01T11:26:12;3.53;;;3.33;;
9328;SDS011;4703;48.748;19.142;2023-03-01T11:28:41;3.50;;;3.20;;
9328;SDS011;4703;48.748;19.142;2023-03-01T11:31:11;3.30;;;3.00;;
9328;SDS011;4703;48.748;19.142;2023-03-01T11:33:49;3.90;;;2.60;;
9328;SDS011;4703;48.748;19.142;2023-03-01T11:44:44;4.23;;;2.67;;
9328;SDS011;4703;48.748;19.142;2023-03-01T11:47:28;1.60;;;1.50;;
9328;SDS011;4703;48.748;19.142;2023-03-01T11:50:27;2.23;;;1.70;;
9328;SDS011;4703;48.748;19.142;2023-03-01T11:53:09;3.23;;;2.27;;
9328;SDS011;4703;48.748;19.142;2023-03-01T11:56:00;2.20;;;2.10;;
9328;SDS011;4703;48.748;19.142;2023-03-01T12:01:59;2.57;;;2.37;;
9328;SDS011;4703;48.748;19.142;2023-03-01T12:04:51;2.47;;;2.30;;
9328;SDS011;4703;48.748;19.142;2023-03-01T12:08:04;3.57;;;2.17;;
9328;SDS011;4703;48.748;19.142;2023-03-01T12:16:26;2.80;;;2.60;;
9328;SDS011;4703;48.748;19.142;2023-03-01T12:19:21;2.47;;;2.10;;
9328;SDS011;4703;48.748;19.142;2023-03-01T12:36:15;3.03;;;2.73;;
9328;SDS011;4703;48.748;19.142;2023-03-01T12:50:52;3.03;;;2.80;;
9328;SDS011;4703;48.748;19.142;2023-03-01T12:53:28;3.57;;;3.27;;
9328;SDS011;4703;48.748;19.142;2023-03-01T12:56:08;3.27;;;3.03;;
9328;SDS011;4703;48.748;19.142;2023-03-01T13:01:42;3.17;;;2.87;;
9328;SDS011;4703;48.748;19.142;2023-03-01T13:04:28;2.93;;;2.73;;
9328;SDS011;4703;48.748;19.142;2023-03-01T13:09:49;9.50;;;5.33;;
9328;SDS011;4703;48.748;19.142;2023-03-01T13:17:49;3.03;;;2.77;;
9328;SDS011;4703;48.748;19.142;2023-03-01T13:20:20;4.67;;;2.97;;
9328;SDS011;4703;48.748;19.142;2023-03-01T13:23:30;3.53;;;2.77;;
9328;SDS011;4703;48.748;19.142;2023-03-01T13:33:48;3.50;;;3.20;;
9328;SDS011;4703;48.748;19.142;2023-03-01T13:39:30;3.37;;;3.07;;
9328;SDS011;4703;48.748;19.142;2023-03-01T13:42:00;3.17;;;2.87;;
9328;SDS011;4703;48.748;19.142;2023-03-01T13:44:34;3.57;;;3.00;;
9328;SDS011;4703;48.748;19.142;2023-03-01T13:49:51;4.53;;;3.50;;
9328;SDS011;4703;48.748;19.142;2023-03-01T13:52:42;3.00;;;2.80;;
9328;SDS011;4703;48.748;19.142;2023-03-01T13:57:50;3.93;;;3.17;;
9328;SDS011;4703;48.748;19.142;2023-03-01T14:00:34;3.80;;;3.40;;
9328;SDS011;4703;48.748;19.142;2023-03-01T14:03:23;3.20;;;3.00;;
9328;SDS011;4703;48.748;19.142;2023-03-01T14:06:04;5.83;;;3.00;;
9328;SDS011;4703;48.748;19.142;2023-03-01T14:08:47;3.83;;;3.43;;
9328;SDS011;4703;48.748;19.142;2023-03-01T14:17:35;5.43;;;4.93;;
9328;SDS011;4703;48.748;19.142;2023-03-01T14:20:42;3.70;;;3.40;;
9328;SDS011;4703;48.748;19.142;2023-03-01T14:23:18;4.83;;;3.30;;
9328;SDS011;4703;48.748;19.142;2023-03-01T14:25:51;3.60;;;3.30;;
9328;SDS011;4703;48.748;19.142;2023-03-01T14:28:24;3.70;;;3.03;;
9328;SDS011;4703;48.748;19.142;2023-03-01T14:30:57;3.23;;;3.03;;
9328;SDS011;4703;48.748;19.142;2023-03-01T14:33:34;5.83;;;5.27;;
9328;SDS011;4703;48.748;19.142;2023-03-01T14:38:40;2.83;;;2.50;;
9328;SDS011;4703;48.748;19.142;2023-03-01T14:41:13;3.90;;;3.60;;
9328;SDS011;4703;48.748;19.142;2023-03-01T14:43:46;7.70;;;3.93;;
9328;SDS011;4703;48.748;19.142;2023-03-01T14:46:41;3.77;;;3.40;;
9328;SDS011;4703;48.748;19.142;2023-03-01T14:49:17;4.13;;;3.73;;
9328;SDS011;4703;48.748;19.142;2023-03-01T14:52:07;5.83;;;3.10;;
9328;SDS011;4703;48.748;19.142;2023-03-01T14:54:46;3.90;;;3.03;;
9328;SDS011;4703;48.748;19.142;2023-03-01T14:57:22;3.30;;;3.00;;
9328;SDS011;4703;48.748;19.142;2023-03-01T14:59:53;3.80;;;3.50;;
9328;SDS011;4703;48.748;19.142;2023-03-01T15:02:32;4.53;;;3.60;;
9328;SDS011;4703;48.748;19.142;2023-03-01T15:05:01;4.37;;;3.97;;
9328;SDS011;4703;48.748;19.142;2023-03-01T15:07:36;4.47;;;4.07;;
9328;SDS011;4703;48.748;19.142;2023-03-01T15:10:11;4.53;;;4.13;;
9328;SDS011;4703;48.748;19.142;2023-03-01T15:12:47;5.00;;;3.67;;
9328;SDS011;4703;48.748;19.142;2023-03-01T15:17:52;4.80;;;4.30;;
9328;SDS011;4703;48.748;19.142;2023-03-01T15:20:23;3.87;;;3.47;;
9328;SDS011;4703;48.748;19.142;2023-03-01T15:22:53;7.73;;;5.00;;
9328;SDS011;4703;48.748;19.142;2023-03-01T15:25:25;4.20;;;3.67;;
9328;SDS011;4703;48.748;19.142;2023-03-01T15:27:56;4.97;;;4.20;;
9328;SDS011;4703;48.748;19.142;2023-03-01T15:30:30;4.40;;;4.00;;
9328;SDS011;4703;48.748;19.142;2023-03-01T15:35:57;4.20;;;3.90;;
9328;SDS011;4703;48.748;19.142;2023-03-01T15:38:49;4.90;;;3.93;;
9328;SDS011;4703;48.748;19.142;2023-03-01T15:41:26;4.33;;;3.73;;
9328;SDS011;4703;48.748;19.142;2023-03-01T15:43:58;8.83;;;4.87;;
9328;SDS011;4703;48.748;19.142;2023-03-01T15:46:33;11.70;;;6.57;;
9328;SDS011;4703;48.748;19.142;2023-03-01T15:49:50;8.40;;;7.67;;
9328;SDS011;4703;48.748;19.142;2023-03-01T15:52:22;12.33;;;8.97;;
9328;SDS011;4703;48.748;19.142;2023-03-01T15:54:57;12.57;;;11.00;;
9328;SDS011;4703;48.748;19.142;2023-03-01T15:57:30;16.57;;;13.30;;
9328;SDS011;4703;48.748;19.142;2023-03-01T15:59:57;13.90;;;12.50;;
9328;SDS011;4703;48.748;19.142;2023-03-01T16:02:24;18.93;;;14.17;;
9328;SDS011;4703;48.748;19.142;2023-03-01T16:04:51;14.50;;;12.93;;
9328;SDS011;4703;48.748;19.142;2023-03-01T16:07:20;16.40;;;14.70;;
9328;SDS011;4703;48.748;19.142;2023-03-01T16:09:49;15.13;;;12.77;;
9328;SDS011;4703;48.748;19.142;2023-03-01T16:12:21;17.27;;;13.27;;
9328;SDS011;4703;48.748;19.142;2023-03-01T16:14:52;16.33;;;14.13;;
9328;SDS011;4703;48.748;19.142;2023-03-01T16:17:23;19.10;;;15.63;;
9328;SDS011;4703;48.748;19.142;2023-03-01T16:19:51;19.57;;;13.80;;
9328;SDS011;4703;48.748;19.142;2023-03-01T16:22:18;20.10;;;14.90;;
9328;SDS011;4703;48.748;19.142;2023-03-01T16:24:51;15.43;;;13.83;;
9328;SDS011;4703;48.748;19.142;2023-03-01T16:27:18;19.27;;;14.77;;
9328;SDS011;4703;48.748;19.142;2023-03-01T16:29:46;19.63;;;17.53;;
9328;SDS011;4703;48.748;19.142;2023-03-01T16:32:13;18.43;;;15.00;;
9328;SDS011;4703;48.748;19.142;2023-03-01T16:34:40;25.63;;;18.57;;
9328;SDS011;4703;48.748;19.142;2023-03-01T16:37:07;21.80;;;16.27;;
9328;SDS011;4703;48.748;19.142;2023-03-01T16:39:35;13.60;;;12.03;;
9328;SDS011;4703;48.748;19.142;2023-03-01T16:42:04;13.40;;;12.00;;
9328;SDS011;4703;48.748;19.142;2023-03-01T16:44:31;15.03;;;12.13;;
9328;SDS011;4703;48.748;19.142;2023-03-01T16:46:58;14.67;;;13.10;;
9328;SDS011;4703;48.748;19.142;2023-03-01T16:49:25;18.63;;;15.00;;
9328;SDS011;4703;48.748;19.142;2023-03-01T16:51:55;17.40;;;14.33;;
9328;SDS011;4703;48.748;19.142;2023-03-01T16:54:22;15.03;;;11.70;;
9328;SDS011;4703;48.748;19.142;2023-03-01T16:56:49;15.30;;;12.90;;
9328;SDS011;4703;48.748;19.142;2023-03-01T16:59:16;15.03;;;13.43;;
9328;SDS011;4703;48.748;19.142;2023-03-01T17:01:45;15.53;;;12.93;;
9328;SDS011;4703;48.748;19.142;2023-03-01T17:04:13;13.97;;;12.43;;
9328;SDS011;4703;48.748;19.142;2023-03-01T17:06:40;12.20;;;10.90;;
9328;SDS011;4703;48.748;19.142;2023-03-01T17:09:07;14.40;;;11.67;;
9328;SDS011;4703;48.748;19.142;2023-03-01T17:11:35;16.40;;;13.27;;
9328;SDS011;4703;48.748;19.142;2023-03-01T17:14:02;13.80;;;12.30;;
9328;SDS011;4703;48.748;19.142;2023-03-01T17:16:29;18.30;;;14.60;;